Pernille — 5BNZ2 — position and weather

sailwx.info

Track history (hours):
 
Tides and Currents Weather Stations Pressure Air Temp Water Temp Dewpoint Dewpoint Depression Visibility Wind Speed Wind Dir Waves Ship Positions

Pernille

Last reported at 2015-May-28 14:10 UTC. Time now 2015-May-29 18:11 UTC.
Position N 54°26' E 012°12'.

Length 82 m; draft 5.5 m.

Type: Cargo ship. MMSI: 212662000.

Date/timePositionNaut miles runAvg speedWind from/ knotsBaromVisibWave heightAir tempDewpointWater temp
2015-May-28 14:10N 54°26' E 012°12'5 8.4
2015-May-28 13:33N 54°24' E 012°04'10 9.6
2015-May-28 12:33N 54°25' E 011°48'10 9.6
2015-May-28 11:33N 54°28' E 011°33'9 9.4
2015-May-28 10:33N 54°32' E 011°18'9 9.0
2015-May-28 09:33N 54°34' E 011°03'19 9.4
2015-May-28 07:32N 54°31' E 010°30'9 9.1
2015-May-28 06:34N 54°28' E 010°16'7 7.4
2015-May-28 05:34N 54°22' E 010°08'3 3.2
2015-May-28 04:34N 54°22' E 010°03'8 7.5
2015-May-28 03:33N 54°22' E 009°50'8 7.6
2015-May-28 02:33N 54°17' E 009°39'23 7.5
2015-May-27 23:27N 53°58' E 009°16'7 6.8
2015-May-27 22:29N 53°54' E 009°09'0 0.4
2015-May-27 21:33N 53°53' E 009°08'7 7.4
2015-May-27 20:33N 53°51' E 008°57'9 9.2
2015-May-27 19:33N 53°53' E 008°42'10 9.5
2015-May-27 18:33N 53°58' E 008°28'10 9.8
2015-May-27 17:34N 53°59' E 008°12'10 9.9
2015-May-27 16:33N 53°57' E 007°55'1010.4
2015-May-27 15:33N 53°55' E 007°38'1010.4
2015-May-27 14:34N 53°53' E 007°21'54 8.9
2015-May-27 08:33N 53°38' E 005°53'8 8.4
2015-May-27 07:34N 53°36' E 005°40'8 8.3
2015-May-27 06:33N 53°33' E 005°27'8 8.1
2015-May-27 05:33N 53°31' E 005°14'8 8.1
2015-May-27 04:34N 53°28' E 005°01'9 8.7
2015-May-27 03:30N 53°24' E 004°47'62 9.6
2015-May-26 21:04N 52°31' E 003°56'16 9.6
2015-May-26 19:25N 52°15' E 003°53'8 9.2
2015-May-26 18:34N 52°07' E 003°55'6 6.4
2015-May-26 17:33N 52°01' E 003°59'7 6.7
2015-May-26 16:32N 51°57' E 004°08'0 0.0
2015-May-26 15:32N 51°57' E 004°08'0 0.0
2015-May-26 14:32N 51°57' E 004°08'0 0.0
2015-May-26 13:32N 51°57' E 004°08'0 0.0
2015-May-26 12:32N 51°57' E 004°08'0 0.1
2015-May-26 11:32N 51°57' E 004°08'0 0.0
2015-May-26 10:32N 51°57' E 004°08'0 0.0
2015-May-26 09:32N 51°57' E 004°08'0 0.0
2015-May-26 08:32N 51°57' E 004°08'0 0.0
2015-May-26 07:32N 51°57' E 004°08'0 0.0
2015-May-26 06:32N 51°57' E 004°08'0 0.0
2015-May-26 05:32N 51°57' E 004°08'0 0.3
2015-May-26 04:33N 51°57' E 004°08'5 4.8
2015-May-26 03:34N 51°55' E 004°14'8 7.7
2015-May-26 02:31N 51°54' E 004°27'0 0.0
2015-May-26 01:31N 51°54' E 004°27'0 0.0
2015-May-26 00:31N 51°54' E 004°27'0 0.0
2015-May-25 23:31N 51°54' E 004°27'0 0.0
2015-May-25 22:31N 51°54' E 004°27'0 0.0
2015-May-25 21:31N 51°54' E 004°27'0 0.0
2015-May-25 20:31N 51°54' E 004°27'0 0.0
2015-May-25 19:31N 51°54' E 004°27'0 0.0
2015-May-25 18:31N 51°54' E 004°27'0 0.0
2015-May-25 17:31N 51°54' E 004°27'0 0.0
2015-May-25 16:31N 51°54' E 004°27'0 0.0
2015-May-25 15:31N 51°54' E 004°27'0 0.0
2015-May-25 14:31N 51°54' E 004°27'0 0.0
2015-May-25 13:28N 51°54' E 004°27'0 0.0
2015-May-25 12:31N 51°54' E 004°27'0 0.0
2015-May-25 11:31N 51°54' E 004°27'0 0.0
2015-May-25 10:31N 51°54' E 004°27'0 0.0
2015-May-25 09:31N 51°54' E 004°27'0 0.0
2015-May-25 08:28N 51°54' E 004°27'0 0.0
2015-May-25 07:25N 51°54' E 004°27'0 0.0
2015-May-25 06:31N 51°54' E 004°27'0 0.0
2015-May-25 05:31N 51°54' E 004°27'0 0.0
2015-May-25 04:28N 51°54' E 004°27'0 0.0
2015-May-25 03:28N 51°54' E 004°27'0 0.0
2015-May-25 02:31N 51°54' E 004°27'0 0.0
2015-May-25 01:31N 51°54' E 004°27'0 0.0
2015-May-25 00:28N 51°54' E 004°27'0 0.0
2015-May-24 23:31N 51°54' E 004°27'0 0.0
2015-May-24 22:31N 51°54' E 004°27'0 0.0
2015-May-24 21:31N 51°54' E 004°27'0 0.0
2015-May-24 20:31N 51°54' E 004°27'0 0.0
2015-May-24 19:31N 51°54' E 004°27'0 0.0
2015-May-24 18:28N 51°54' E 004°27'0 0.0
2015-May-24 17:31N 51°54' E 004°27'0 0.0
2015-May-24 16:31N 51°54' E 004°27'0 0.0
2015-May-24 15:31N 51°54' E 004°27'0 0.0
2015-May-24 14:31N 51°54' E 004°27'0 0.0
2015-May-24 13:31N 51°54' E 004°27'0 0.0
2015-May-24 12:31N 51°54' E 004°27'0 0.0
2015-May-24 11:31N 51°54' E 004°27'0 0.0
2015-May-24 10:31N 51°54' E 004°27'0 0.0
2015-May-24 09:31N 51°54' E 004°27'0 0.0
2015-May-24 08:31N 51°54' E 004°27'0 0.0
2015-May-24 07:31N 51°54' E 004°27'0 0.0
2015-May-24 06:33N 51°54' E 004°27'7 7.3
2015-May-24 05:33N 51°54' E 004°16'1111.1
2015-May-24 04:33N 51°60' E 003°60'10 9.6
2015-May-24 03:33N 52°02' E 003°44'9 9.1
2015-May-24 02:32N 52°07' E 003°32'66 9.2
2015-May-23 19:19N 52°42' E 001°60'6 8.2
2015-May-23 18:33N 52°46' E 001°51'8 8.2
2015-May-23 17:33N 52°50' E 001°40'8 7.7
2015-May-23 16:34N 52°55' E 001°29'8 8.0
2015-May-23 15:34N 52°58' E 001°17'9 8.6
2015-May-23 14:33N 53°03' E 001°05'  
2015-May-20 06:33N 53°31' E 004°52'8 7.7
2015-May-20 05:33N 53°34' E 005°04'9 8.7
2015-May-20 04:33N 53°37' E 005°18'1010.2
2015-May-20 03:33N 53°40' E 005°34'1010.1
2015-May-20 02:33N 53°43' E 005°50'10 9.4
2015-May-20 01:32N 53°46' E 006°06'45 8.3
2015-May-19 20:10N 53°58' E 007°19'2 2.9
2015-May-19 19:24N 53°58' E 007°23'7 7.8
2015-May-19 18:33N 53°60' E 007°34'9 8.9
2015-May-19 17:33N 54°01' E 007°49'10 9.9
2015-May-19 16:33N 54°01' E 008°06'1110.7
2015-May-19 15:33N 53°60' E 008°24'1110.9
2015-May-19 14:33N 53°55' E 008°41'8 8.3
2015-May-19 13:33N 53°51' E 008°52'7 7.3
2015-May-19 12:33N 53°52' E 009°04'3 3.2
2015-May-19 11:33N 53°54' E 009°09'0 0.0
2015-May-19 10:24N 53°54' E 009°09'0 0.0
2015-May-19 09:33N 53°54' E 009°09'4 4.2
2015-May-19 08:33N 53°57' E 009°14'7 7.0
2015-May-19 07:33N 54°03' E 009°19'6 5.8
2015-May-19 06:33N 54°09' E 009°22'6 5.5
2015-May-19 05:22N 54°12' E 009°32'6 6.9
2015-May-19 04:29N 54°17' E 009°38'8 8.2
2015-May-19 03:32N 54°22' E 009°48'6 6.2
2015-May-19 02:33N 54°21' E 009°58'4 4.3
2015-May-19 01:34N 54°22' E 010°05'3 2.8
2015-May-19 00:34N 54°22' E 010°10'8 7.9
2015-May-18 23:33N 54°29' E 010°16'1110.2
2015-May-18 22:30N 54°34' E 010°33'1310.2
2015-May-18 21:12N 54°36' E 010°55'711.0
2015-May-18 20:33N 54°36' E 011°08'1110.7
2015-May-18 19:33N 54°32' E 011°25'1111.2
2015-May-18 18:33N 54°28' E 011°42'1110.8
2015-May-18 17:33N 54°27' E 012°01'  
Track history (hours):
 
Tides and Currents Weather Stations Pressure Air Temp Water Temp Dewpoint Dewpoint Depression Visibility Wind Speed Wind Dir Waves Ship Positions

Pernille

Last reported at 2015-May-28 14:10 UTC. Time now 2015-May-29 18:11 UTC.
Position N 54°26' E 012°12'.

Length 82 m; draft 5.5 m.

Type: Cargo ship. MMSI: 212662000.

Date/timePositionNaut miles runAvg speedWind from/ knotsBaromVisibWave heightAir tempDewpointWater temp
2015-May-28 14:10N 54°26' E 012°12'5 8.4
2015-May-28 13:33N 54°24' E 012°04'10 9.6
2015-May-28 12:33N 54°25' E 011°48'10 9.6
2015-May-28 11:33N 54°28' E 011°33'9 9.4
2015-May-28 10:33N 54°32' E 011°18'9 9.0
2015-May-28 09:33N 54°34' E 011°03'19 9.4
2015-May-28 07:32N 54°31' E 010°30'9 9.1
2015-May-28 06:34N 54°28' E 010°16'7 7.4
2015-May-28 05:34N 54°22' E 010°08'3 3.2
2015-May-28 04:34N 54°22' E 010°03'8 7.5
2015-May-28 03:33N 54°22' E 009°50'8 7.6
2015-May-28 02:33N 54°17' E 009°39'23 7.5
2015-May-27 23:27N 53°58' E 009°16'7 6.8
2015-May-27 22:29N 53°54' E 009°09'0 0.4
2015-May-27 21:33N 53°53' E 009°08'7 7.4
2015-May-27 20:33N 53°51' E 008°57'9 9.2
2015-May-27 19:33N 53°53' E 008°42'10 9.5
2015-May-27 18:33N 53°58' E 008°28'10 9.8
2015-May-27 17:34N 53°59' E 008°12'10 9.9
2015-May-27 16:33N 53°57' E 007°55'1010.4
2015-May-27 15:33N 53°55' E 007°38'1010.4
2015-May-27 14:34N 53°53' E 007°21'54 8.9
2015-May-27 08:33N 53°38' E 005°53'8 8.4
2015-May-27 07:34N 53°36' E 005°40'8 8.3
2015-May-27 06:33N 53°33' E 005°27'8 8.1
2015-May-27 05:33N 53°31' E 005°14'8 8.1
2015-May-27 04:34N 53°28' E 005°01'9 8.7
2015-May-27 03:30N 53°24' E 004°47'62 9.6
2015-May-26 21:04N 52°31' E 003°56'16 9.6
2015-May-26 19:25N 52°15' E 003°53'8 9.2
2015-May-26 18:34N 52°07' E 003°55'6 6.4
2015-May-26 17:33N 52°01' E 003°59'7 6.7
2015-May-26 16:32N 51°57' E 004°08'0 0.0
2015-May-26 15:32N 51°57' E 004°08'0 0.0
2015-May-26 14:32N 51°57' E 004°08'0 0.0
2015-May-26 13:32N 51°57' E 004°08'0 0.0
2015-May-26 12:32N 51°57' E 004°08'0 0.1
2015-May-26 11:32N 51°57' E 004°08'0 0.0
2015-May-26 10:32N 51°57' E 004°08'0 0.0
2015-May-26 09:32N 51°57' E 004°08'0 0.0
2015-May-26 08:32N 51°57' E 004°08'0 0.0
2015-May-26 07:32N 51°57' E 004°08'0 0.0
2015-May-26 06:32N 51°57' E 004°08'0 0.0
2015-May-26 05:32N 51°57' E 004°08'0 0.3
2015-May-26 04:33N 51°57' E 004°08'5 4.8
2015-May-26 03:34N 51°55' E 004°14'8 7.7
2015-May-26 02:31N 51°54' E 004°27'0 0.0
2015-May-26 01:31N 51°54' E 004°27'0 0.0
2015-May-26 00:31N 51°54' E 004°27'0 0.0
2015-May-25 23:31N 51°54' E 004°27'0 0.0
2015-May-25 22:31N 51°54' E 004°27'0 0.0
2015-May-25 21:31N 51°54' E 004°27'0 0.0
2015-May-25 20:31N 51°54' E 004°27'0 0.0
2015-May-25 19:31N 51°54' E 004°27'0 0.0
2015-May-25 18:31N 51°54' E 004°27'0 0.0
2015-May-25 17:31N 51°54' E 004°27'0 0.0
2015-May-25 16:31N 51°54' E 004°27'0 0.0
2015-May-25 15:31N 51°54' E 004°27'0 0.0
2015-May-25 14:31N 51°54' E 004°27'0 0.0
2015-May-25 13:28N 51°54' E 004°27'0 0.0
2015-May-25 12:31N 51°54' E 004°27'0 0.0
2015-May-25 11:31N 51°54' E 004°27'0 0.0
2015-May-25 10:31N 51°54' E 004°27'0 0.0
2015-May-25 09:31N 51°54' E 004°27'0 0.0
2015-May-25 08:28N 51°54' E 004°27'0 0.0
2015-May-25 07:25N 51°54' E 004°27'0 0.0
2015-May-25 06:31N 51°54' E 004°27'0 0.0
2015-May-25 05:31N 51°54' E 004°27'0 0.0
2015-May-25 04:28N 51°54' E 004°27'0 0.0
2015-May-25 03:28N 51°54' E 004°27'0 0.0
2015-May-25 02:31N 51°54' E 004°27'0 0.0
2015-May-25 01:31N 51°54' E 004°27'0 0.0
2015-May-25 00:28N 51°54' E 004°27'0 0.0
2015-May-24 23:31N 51°54' E 004°27'0 0.0
2015-May-24 22:31N 51°54' E 004°27'0 0.0
2015-May-24 21:31N 51°54' E 004°27'0 0.0
2015-May-24 20:31N 51°54' E 004°27'0 0.0
2015-May-24 19:31N 51°54' E 004°27'0 0.0
2015-May-24 18:28N 51°54' E 004°27'0 0.0
2015-May-24 17:31N 51°54' E 004°27'0 0.0
2015-May-24 16:31N 51°54' E 004°27'0 0.0
2015-May-24 15:31N 51°54' E 004°27'0 0.0
2015-May-24 14:31N 51°54' E 004°27'0 0.0
2015-May-24 13:31N 51°54' E 004°27'0 0.0
2015-May-24 12:31N 51°54' E 004°27'0 0.0
2015-May-24 11:31N 51°54' E 004°27'0 0.0
2015-May-24 10:31N 51°54' E 004°27'0 0.0
2015-May-24 09:31N 51°54' E 004°27'0 0.0
2015-May-24 08:31N 51°54' E 004°27'0 0.0
2015-May-24 07:31N 51°54' E 004°27'0 0.0
2015-May-24 06:33N 51°54' E 004°27'7 7.3
2015-May-24 05:33N 51°54' E 004°16'1111.1
2015-May-24 04:33N 51°60' E 003°60'10 9.6
2015-May-24 03:33N 52°02' E 003°44'9 9.1
2015-May-24 02:32N 52°07' E 003°32'66 9.2
2015-May-23 19:19N 52°42' E 001°60'6 8.2
2015-May-23 18:33N 52°46' E 001°51'8 8.2
2015-May-23 17:33N 52°50' E 001°40'8 7.7
2015-May-23 16:34N 52°55' E 001°29'8 8.0
2015-May-23 15:34N 52°58' E 001°17'9 8.6
2015-May-23 14:33N 53°03' E 001°05'  
2015-May-20 06:33N 53°31' E 004°52'8 7.7
2015-May-20 05:33N 53°34' E 005°04'9 8.7
2015-May-20 04:33N 53°37' E 005°18'1010.2
2015-May-20 03:33N 53°40' E 005°34'1010.1
2015-May-20 02:33N 53°43' E 005°50'10 9.4
2015-May-20 01:32N 53°46' E 006°06'45 8.3
2015-May-19 20:10N 53°58' E 007°19'2 2.9
2015-May-19 19:24N 53°58' E 007°23'7 7.8
2015-May-19 18:33N 53°60' E 007°34'9 8.9
2015-May-19 17:33N 54°01' E 007°49'10 9.9
2015-May-19 16:33N 54°01' E 008°06'1110.7
2015-May-19 15:33N 53°60' E 008°24'1110.9
2015-May-19 14:33N 53°55' E 008°41'8 8.3
2015-May-19 13:33N 53°51' E 008°52'7 7.3
2015-May-19 12:33N 53°52' E 009°04'3 3.2
2015-May-19 11:33N 53°54' E 009°09'0 0.0
2015-May-19 10:24N 53°54' E 009°09'0 0.0
2015-May-19 09:33N 53°54' E 009°09'4 4.2
2015-May-19 08:33N 53°57' E 009°14'7 7.0
2015-May-19 07:33N 54°03' E 009°19'6 5.8
2015-May-19 06:33N 54°09' E 009°22'6 5.5
2015-May-19 05:22N 54°12' E 009°32'6 6.9
2015-May-19 04:29N 54°17' E 009°38'8 8.2
2015-May-19 03:32N 54°22' E 009°48'6 6.2
2015-May-19 02:33N 54°21' E 009°58'4 4.3
2015-May-19 01:34N 54°22' E 010°05'3 2.8
2015-May-19 00:34N 54°22' E 010°10'8 7.9
2015-May-18 23:33N 54°29' E 010°16'1110.2
2015-May-18 22:30N 54°34' E 010°33'1310.2
2015-May-18 21:12N 54°36' E 010°55'711.0
2015-May-18 20:33N 54°36' E 011°08'1110.7
2015-May-18 19:33N 54°32' E 011°25'1111.2
2015-May-18 18:33N 54°28' E 011°42'1110.8
2015-May-18 17:33N 54°27' E 012°01'  

Dump ship's entire track history